Time;durP1;ratioP1;P1;durP2;ratioP2;P2;SDS_P1;SDS_P2;PMS_P1;PMS_P2;Temp;Humidity;BMP_temperature;BMP_pressure;BME280_temperature;BME280_humidity;BME280_pressure;Samples;Min_cycle;Max_cycle;Signal;HPM_P1;HPM_P2
2021/07/13 00:02:04;;;;;;;18.63;3.63;;;41.90;27.40;;;;;;5052343;28;21670;-58
2021/07/13 00:04:30;;;;;;;18.80;3.65;;;41.80;27.70;;;;;;5050615;28;20149;-62
2021/07/13 00:06:57;;;;;;;24.73;4.30;;;41.90;27.30;;;;;;5051852;28;20645;-62
2021/07/13 00:09:23;;;;;;;20.02;3.95;;;41.90;27.20;;;;;;5051858;28;20111;-62
2021/07/13 00:11:50;;;;;;;12.57;3.08;;;41.80;27.30;;;;;;5052057;28;20074;-60
2021/07/13 00:14:17;;;;;;;18.20;3.20;;;41.90;27.40;;;;;;5052080;28;20069;-61
2021/07/13 00:16:44;;;;;;;19.60;3.10;;;41.80;27.60;;;;;;5051824;28;20162;-61
2021/07/13 00:19:11;;;;;;;19.52;4.07;;;41.80;28.10;;;;;;5052392;28;20077;-61
2021/07/13 00:21:39;;;;;;;19.23;3.60;;;41.70;28.20;;;;;;5052270;28;20160;-61
2021/07/13 00:24:07;;;;;;;12.48;3.03;;;41.60;28.50;;;;;;5052243;28;20142;-61
2021/07/13 00:26:35;;;;;;;11.23;3.10;;;41.50;27.60;;;;;;5050788;28;20096;-61
2021/07/13 00:29:02;;;;;;;14.82;2.70;;;41.30;27.40;;;;;;5052106;28;20531;-60
2021/07/13 00:31:29;;;;;;;15.98;2.63;;;41.20;27.20;;;;;;5051124;28;20080;-60
2021/07/13 00:33:57;;;;;;;11.20;2.92;;;41.10;26.90;;;;;;5051481;28;20157;-61
2021/07/13 00:36:25;;;;;;;15.18;2.70;;;40.90;27.40;;;;;;5051576;28;20092;-60
2021/07/13 00:38:51;;;;;;;9.80;2.42;;;41.00;27.70;;;;;;5051661;28;20092;-60
2021/07/13 00:41:18;;;;;;;26.05;3.30;;;40.90;27.80;;;;;;5051646;28;20101;-61
2021/07/13 00:43:44;;;;;;;13.25;2.72;;;40.90;28.10;;;;;;5051727;28;20403;-60
2021/07/13 00:46:12;;;;;;;19.45;2.80;;;40.70;29.00;;;;;;5050862;28;20085;-60
2021/07/13 00:48:38;;;;;;;23.63;3.00;;;40.70;29.30;;;;;;5051868;28;20560;-62
2021/07/13 00:51:05;;;;;;;17.70;2.88;;;40.70;29.40;;;;;;5051244;28;20094;-60
2021/07/13 00:53:32;;;;;;;25.50;3.65;;;40.70;30.20;;;;;;5051340;28;20545;-59
2021/07/13 00:55:59;;;;;;;29.83;3.17;;;40.50;31.30;;;;;;5052028;28;20107;-61
2021/07/13 00:58:26;;;;;;;22.90;3.50;;;40.30;33.00;;;;;;5049657;28;20139;-61
2021/07/13 01:00:53;;;;;;;17.13;2.88;;;40.10;32.80;;;;;;5051022;28;20608;-62
2021/07/13 01:03:19;;;;;;;28.88;3.38;;;40.00;33.30;;;;;;5050645;28;20078;-60
2021/07/13 01:05:50;;;;;;;9.95;2.55;;;40.10;33.50;;;;;;5049965;28;20558;-61
2021/07/13 01:08:36;;;;;;;23.40;3.20;;;39.90;33.30;;;;;;5051017;28;20066;-61
2021/07/13 01:11:38;;;;;;;25.73;3.10;;;39.80;33.00;;;;;;5050088;28;20530;-60
2021/07/13 01:14:14;;;;;;;22.45;3.40;;;39.60;33.70;;;;;;5050420;28;20088;-62
2021/07/13 01:16:40;;;;;;;;;;;39.70;34.10;;;;;;5050879;28;20095;-60
2021/07/13 01:19:31;;;;;;;18.25;3.15;;;39.40;34.40;;;;;;5050975;28;20059;-61
2021/07/13 01:22:01;;;;;;;22.15;3.50;;;39.40;35.10;;;;;;5051272;28;20123;-61
2021/07/13 01:24:31;;;;;;;16.55;3.00;;;39.10;36.40;;;;;;5050258;28;20081;-62
2021/07/13 01:27:18;;;;;;;27.50;4.20;;;39.00;37.10;;;;;;5050434;28;20085;-60
2021/07/13 01:29:47;;;;;;;24.05;4.05;;;38.90;53.40;;;;;;5050883;28;20159;-59
2021/07/13 01:32:18;;;;;;;19.50;3.72;;;38.60;38.70;;;;;;5048823;28;20056;-62
2021/07/13 01:34:53;;;;;;;18.73;3.97;;;38.50;39.40;;;;;;5049403;28;20505;-61
2021/07/13 01:37:21;;;;;;;22.40;3.83;;;38.50;39.50;;;;;;5048787;28;20159;-60
2021/07/13 01:39:53;;;;;;;18.02;3.63;;;38.30;39.90;;;;;;5050471;28;20069;-60
2021/07/13 01:42:21;;;;;;;21.23;3.80;;;38.10;40.60;;;;;;5051198;28;20084;-59
2021/07/13 01:44:50;;;;;;;25.80;3.65;;;38.00;41.10;;;;;;5051315;28;20050;-58
2021/07/13 01:47:18;;;;;;;19.60;3.90;;;37.80;41.20;;;;;;5050903;28;20164;-59
2021/07/13 01:49:46;;;;;;;38.03;4.85;;;37.60;41.80;;;;;;5049838;28;20157;-60
2021/07/13 01:52:14;;;;;;;21.73;3.83;;;37.50;42.50;;;;;;5049925;28;20073;-60
2021/07/13 01:54:42;;;;;;;27.63;3.80;;;37.50;42.60;;;;;;5050565;28;20078;-59
2021/07/13 01:57:10;;;;;;;31.25;4.43;;;37.60;42.60;;;;;;5050877;28;20147;-60
2021/07/13 01:59:40;;;;;;;20.80;3.95;;;37.60;43.30;;;;;;5050275;28;20166;-58
2021/07/13 02:02:10;;;;;;;28.10;5.03;;;37.40;44.40;;;;;;5048343;28;20161;-59
2021/07/13 02:04:39;;;;;;;33.65;5.50;;;37.10;45.00;;;;;;5049997;28;20450;-61
2021/07/13 02:07:08;;;;;;;26.23;5.10;;;36.90;45.60;;;;;;5064123;28;20070;-59
2021/07/13 02:09:35;;;;;;;22.17;4.88;;;36.70;46.10;;;;;;5050554;28;20078;-60
2021/07/13 02:12:03;;;;;;;23.45;5.40;;;36.60;46.30;;;;;;5050171;28;20070;-59
2021/07/13 02:14:30;;;;;;;17.30;4.75;;;36.50;46.80;;;;;;5050593;28;20120;-58
2021/07/13 02:16:56;;;;;;;20.17;4.78;;;36.50;47.20;;;;;;5050599;28;20600;-60
2021/07/13 02:19:25;;;;;;;20.95;4.70;;;36.40;47.30;;;;;;5048358;28;20589;-61
2021/07/13 02:21:51;;;;;;;28.70;5.32;;;36.40;47.70;;;;;;5049846;28;20131;-60
2021/07/13 02:24:18;;;;;;;21.45;4.22;;;36.30;48.10;;;;;;5056941;28;20074;-60
2021/07/13 02:26:56;;;;;;;25.75;4.90;;;36.20;48.40;;;;;;5050253;28;20081;-61
2021/07/13 02:29:29;;;;;;;23.02;5.10;;;36.10;48.50;;;;;;5050759;28;20081;-61
2021/07/13 02:32:01;;;;;;;16.90;5.32;;;36.00;48.00;;;;;;5053959;28;20094;-59
2021/07/13 02:34:29;;;;;;;24.33;6.20;;;35.90;47.90;;;;;;5053255;28;20074;-58
2021/07/13 02:37:00;;;;;;;25.63;5.45;;;35.70;48.30;;;;;;5051587;28;20077;-61
2021/07/13 02:39:29;;;;;;;25.27;5.95;;;35.70;48.90;;;;;;5053281;28;20137;-61
2021/07/13 02:41:56;;;;;;;23.52;6.55;;;35.70;49.20;;;;;;5053327;28;20073;-60
2021/07/13 02:44:26;;;;;;;30.85;8.35;;;35.60;49.20;;;;;;5052558;28;20072;-58
2021/07/13 02:46:53;;;;;;;21.90;7.90;;;35.40;49.30;;;;;;5054003;28;20090;-60
2021/07/13 02:49:24;;;;;;;34.03;8.13;;;35.40;49.00;;;;;;5053455;28;20066;-56
2021/07/13 02:51:51;;;;;;;17.73;8.25;;;35.40;49.40;;;;;;5053766;28;20078;-59
2021/07/13 02:54:22;;;;;;;26.38;7.82;;;35.30;49.60;;;;;;5054043;28;20105;-59
2021/07/13 02:56:49;;;;;;;30.48;7.55;;;35.20;49.40;;;;;;5053740;28;20077;-59
2021/07/13 02:59:24;;;;;;;27.80;7.65;;;35.10;49.20;;;;;;5053250;28;20244;-59
2021/07/13 03:01:51;;;;;;;35.25;7.97;;;35.00;49.10;;;;;;5053291;28;20107;-58
2021/07/13 03:04:19;;;;;;;23.30;5.72;;;35.00;48.90;;;;;;5053268;28;20165;-60
2021/07/13 03:06:46;;;;;;;18.00;4.80;;;34.90;49.30;;;;;;5052972;28;20077;-59
2021/07/13 03:09:14;;;;;;;22.63;5.20;;;34.80;49.60;;;;;;5051558;28;20523;-59
2021/07/13 03:11:40;;;;;;;24.02;5.57;;;34.80;49.80;;;;;;5053019;28;20622;-59
2021/07/13 03:14:12;;;;;;;17.00;5.10;;;34.80;49.60;;;;;;5053394;28;20066;-59
2021/07/13 03:16:39;;;;;;;18.92;4.97;;;34.80;49.50;;;;;;5051514;28;20561;-57
2021/07/13 03:19:06;;;;;;;21.05;4.93;;;34.70;49.20;;;;;;5053660;28;20223;-59
2021/07/13 03:21:36;;;;;;;26.48;7.13;;;34.70;48.50;;;;;;5053357;28;20081;-62
2021/07/13 03:24:04;;;;;;;21.92;7.30;;;34.60;48.20;;;;;;5053118;28;20477;-61
2021/07/13 03:26:36;;;;;;;21.15;8.23;;;34.60;48.10;;;;;;5052800;28;20438;-61
2021/07/13 03:29:03;;;;;;;18.33;5.95;;;34.50;48.30;;;;;;5052643;28;20077;-61
2021/07/13 03:31:31;;;;;;;24.27;6.18;;;34.70;64.60;;;;;;5052830;28;20097;-60
2021/07/13 03:34:00;;;;;;;19.83;5.35;;;34.50;48.50;;;;;;5052847;28;20434;-61
2021/07/13 03:36:27;;;;;;;23.98;7.13;;;34.50;48.30;;;;;;5052485;28;20081;-59
2021/07/13 03:38:54;;;;;;;22.83;4.50;;;34.40;48.40;;;;;;5052732;28;20160;-60
2021/07/13 03:41:20;;;;;;;21.08;5.70;;;34.30;48.60;;;;;;5052404;28;20105;-61
2021/07/13 03:43:47;;;;;;;21.55;5.57;;;34.20;48.70;;;;;;5068880;28;20160;-58
2021/07/13 03:46:14;;;;;;;15.40;4.30;;;34.30;48.60;;;;;;5052684;28;20077;-60
2021/07/13 03:48:42;;;;;;;15.82;4.93;;;34.30;48.60;;;;;;5052095;28;20077;-61
2021/07/13 03:51:35;;;;;;;16.63;5.07;;;34.30;48.50;;;;;;5052687;28;20082;-60
2021/07/13 03:54:03;;;;;;;23.23;6.50;;;34.30;48.80;;;;;;5052272;28;20080;-59
2021/07/13 03:56:30;;;;;;;19.73;6.35;;;34.20;48.90;;;;;;5052669;28;20515;-59
2021/07/13 03:58:58;;;;;;;27.17;6.97;;;34.20;48.90;;;;;;5052026;28;20116;-61
2021/07/13 04:01:24;;;;;;;25.60;6.80;;;34.10;48.80;;;;;;5052566;28;20489;-60
2021/07/13 04:03:51;;;;;;;27.05;7.43;;;34.00;49.10;;;;;;5051080;28;20065;-60
2021/07/13 04:06:17;;;;;;;37.20;8.85;;;34.00;49.00;;;;;;5052053;28;20073;-61
2021/07/13 04:08:44;;;;;;;21.65;8.15;;;33.90;49.10;;;;;;5051181;28;20200;-62
2021/07/13 04:11:11;;;;;;;23.88;7.28;;;34.00;49.30;;;;;;5052763;28;20074;-60
2021/07/13 04:13:37;;;;;;;22.98;7.30;;;33.90;49.20;;;;;;5051998;28;20455;-61
2021/07/13 04:16:04;;;;;;;25.85;7.22;;;33.80;49.40;;;;;;5052498;28;20153;-60
2021/07/13 04:18:31;;;;;;;26.02;7.85;;;33.90;49.70;;;;;;5050957;28;20165;-59
2021/07/13 04:20:57;;;;;;;16.35;5.97;;;33.80;49.40;;;;;;5051694;28;20104;-60
2021/07/13 04:23:24;;;;;;;20.70;5.95;;;33.80;49.30;;;;;;5052132;28;20081;-60
2021/07/13 04:25:50;;;;;;;13.75;5.28;;;33.80;49.40;;;;;;5052093;28;20143;-60
2021/07/13 04:28:17;;;;;;;21.75;5.30;;;33.70;49.60;;;;;;5051983;28;20122;-59
2021/07/13 04:30:43;;;;;;;16.65;4.72;;;33.70;49.80;;;;;;5052264;28;20077;-60
2021/07/13 04:33:10;;;;;;;15.90;4.80;;;33.70;49.90;;;;;;5051247;28;20088;-60
2021/07/13 04:35:38;;;;;;;18.70;4.55;;;33.70;50.20;;;;;;5051204;28;20077;-57
2021/07/13 04:38:04;;;;;;;19.58;4.45;;;33.60;50.40;;;;;;5052233;28;20502;-61
2021/07/13 04:40:31;;;;;;;15.20;4.55;;;33.50;50.70;;;;;;5051862;28;20094;-61
2021/07/13 04:42:58;;;;;;;36.50;4.82;;;33.50;50.80;;;;;;5051472;28;20088;-61
2021/07/13 04:45:24;;;;;;;15.60;4.50;;;33.40;51.20;;;;;;5051737;28;20092;-63
2021/07/13 04:47:51;;;;;;;30.13;5.57;;;33.40;51.50;;;;;;5051864;28;20149;-61
2021/07/13 04:50:18;;;;;;;18.00;3.83;;;33.30;51.80;;;;;;5051283;28;20200;-59
2021/07/13 04:52:44;;;;;;;17.08;4.18;;;33.30;51.70;;;;;;5049941;28;20443;-60
2021/07/13 04:55:12;;;;;;;20.92;4.30;;;33.30;51.70;;;;;;5050933;28;20080;-60
2021/07/13 04:57:40;;;;;;;20.33;3.88;;;33.30;51.80;;;;;;5050019;28;20135;-60
2021/07/13 05:00:08;;;;;;;15.50;4.15;;;33.30;52.00;;;;;;5050687;28;20093;-59
2021/07/13 05:02:35;;;;;;;13.60;3.40;;;33.20;52.20;;;;;;5052471;28;20123;-57
2021/07/13 05:05:01;;;;;;;18.25;4.10;;;33.20;52.50;;;;;;5053335;28;20525;-58
2021/07/13 05:07:28;;;;;;;19.50;4.15;;;33.10;52.60;;;;;;5053176;28;20084;-61
2021/07/13 05:09:54;;;;;;;10.57;3.85;;;33.00;53.00;;;;;;5052486;28;20074;-59
2021/07/13 05:12:21;;;;;;;14.50;3.80;;;33.00;53.00;;;;;;5051864;28;20108;-60
2021/07/13 05:14:47;;;;;;;15.50;3.60;;;33.00;53.10;;;;;;5051784;28;20069;-57
2021/07/13 05:17:14;;;;;;;11.02;3.60;;;33.00;53.30;;;;;;5050595;28;21674;-58
2021/07/13 05:19:44;;;;;;;12.18;3.50;;;33.00;53.40;;;;;;5049476;28;20589;-57
2021/07/13 05:22:11;;;;;;;11.13;3.55;;;33.00;54.20;;;;;;5049796;28;20084;-58
2021/07/13 05:24:37;;;;;;;17.80;4.38;;;32.90;53.70;;;;;;5050172;28;20080;-58
2021/07/13 05:27:04;;;;;;;12.43;3.80;;;32.90;54.00;;;;;;5050483;28;20074;-56
2021/07/13 05:29:32;;;;;;;13.13;3.72;;;32.80;54.20;;;;;;5049817;28;20077;-58
2021/07/13 05:31:58;;;;;;;18.27;4.05;;;32.70;54.60;;;;;;5048990;28;20077;-58
2021/07/13 05:34:25;;;;;;;12.48;4.07;;;32.80;54.70;;;;;;5050056;28;20077;-59
2021/07/13 05:36:51;;;;;;;16.42;3.90;;;32.70;55.00;;;;;;5049983;28;20600;-58
2021/07/13 05:39:18;;;;;;;16.65;3.70;;;32.60;55.20;;;;;;5049280;28;20535;-57
2021/07/13 05:41:45;;;;;;;9.40;4.03;;;32.90;85.30;;;;;;5050648;28;20169;-57
2021/07/13 05:44:11;;;;;;;12.10;3.95;;;32.60;55.70;;;;;;5048631;28;20074;-58
2021/07/13 05:46:38;;;;;;;10.38;4.03;;;32.60;55.80;;;;;;5050432;28;20077;-58
2021/07/13 05:49:04;;;;;;;14.77;4.43;;;32.70;55.90;;;;;;5049823;28;20074;-59
2021/07/13 05:51:31;;;;;;;14.32;4.47;;;32.50;56.20;;;;;;5050454;28;20594;-59
2021/07/13 05:53:58;;;;;;;17.95;4.47;;;32.50;56.50;;;;;;5050149;28;20089;-58
2021/07/13 05:56:24;;;;;;;11.98;3.70;;;32.40;56.60;;;;;;5050012;28;20155;-59
2021/07/13 05:58:51;;;;;;;16.45;4.82;;;32.50;56.70;;;;;;5050357;28;20259;-60
2021/07/13 06:01:18;;;;;;;18.63;4.63;;;32.50;56.90;;;;;;5050330;28;20450;-58
2021/07/13 06:03:45;;;;;;;14.38;4.53;;;32.40;57.10;;;;;;5051686;28;20076;-58
2021/07/13 06:06:11;;;;;;;14.63;4.43;;;32.40;57.20;;;;;;5054430;28;20212;-59
2021/07/13 06:08:38;;;;;;;17.77;4.50;;;32.40;57.50;;;;;;5053352;28;20074;-60
2021/07/13 06:11:04;;;;;;;12.73;4.30;;;32.40;57.60;;;;;;5053397;28;20541;-59
2021/07/13 06:13:32;;;;;;;13.00;4.25;;;32.40;57.70;;;;;;5054728;28;20085;-58
2021/07/13 06:15:59;;;;;;;17.02;4.63;;;32.40;58.00;;;;;;5058585;28;20194;-59
2021/07/13 06:18:25;;;;;;;17.73;4.30;;;32.30;58.20;;;;;;5054407;28;20438;-59
2021/07/13 06:20:52;;;;;;;13.00;4.85;;;32.30;59.10;;;;;;5055648;28;20113;-59
2021/07/13 06:23:19;;;;;;;18.33;4.82;;;32.20;58.80;;;;;;5060335;28;20070;-59
2021/07/13 06:25:45;;;;;;;15.02;4.45;;;32.30;58.90;;;;;;5055765;28;20077;-61
2021/07/13 06:28:12;;;;;;;13.65;4.97;;;32.20;59.20;;;;;;5054707;28;20235;-62
2021/07/13 06:30:40;;;;;;;10.57;4.22;;;32.20;59.50;;;;;;5055648;28;20113;-61
2021/07/13 06:33:06;;;;;;;13.68;4.80;;;32.10;60.10;;;;;;5055657;28;20089;-59
2021/07/13 06:35:34;;;;;;;17.83;4.88;;;32.10;60.70;;;;;;5055295;28;20112;-62
2021/07/13 06:38:02;;;;;;;22.55;5.22;;;32.10;60.90;;;;;;5054494;28;20066;-57
2021/07/13 06:40:30;;;;;;;17.73;4.53;;;32.00;61.10;;;;;;5054181;28;20109;-57
2021/07/13 06:42:56;;;;;;;13.88;4.50;;;32.10;61.50;;;;;;5053660;28;20070;-60
2021/07/13 06:45:23;;;;;;;18.02;4.75;;;32.00;62.20;;;;;;5052829;28;20077;-57
2021/07/13 06:47:54;;;;;;;16.35;4.63;;;32.00;62.50;;;;;;5053911;28;20080;-59
2021/07/13 06:50:25;;;;;;;10.77;4.90;;;32.00;62.70;;;;;;5053556;28;20121;-61
2021/07/13 06:52:53;;;;;;;19.05;5.32;;;31.90;63.10;;;;;;5054072;28;20077;-59
2021/07/13 06:55:21;;;;;;;18.45;5.95;;;32.00;63.50;;;;;;5051968;28;20116;-59
2021/07/13 06:57:47;;;;;;;23.60;6.53;;;31.90;63.90;;;;;;5052905;28;20116;-56
2021/07/13 07:00:14;;;;;;;18.25;6.32;;;31.90;64.20;;;;;;5053977;28;20097;-60
2021/07/13 07:02:43;;;;;;;17.02;5.70;;;31.80;64.40;;;;;;5053086;28;20096;-60
2021/07/13 07:05:10;;;;;;;19.52;6.95;;;31.80;64.90;;;;;;5058709;28;20086;-60
2021/07/13 07:07:47;;;;;;;28.20;8.45;;;31.80;65.30;;;;;;5055508;28;20070;-60
2021/07/13 07:10:15;;;;;;;21.35;7.88;;;32.10;66.00;;;;;;5053543;28;20077;-62
2021/07/13 07:12:42;;;;;;;19.17;7.10;;;31.70;65.90;;;;;;5052883;28;20507;-60
2021/07/13 07:15:10;;;;;;;17.55;6.43;;;31.80;66.00;;;;;;5053249;28;20089;-63
2021/07/13 07:17:43;;;;;;;18.35;5.32;;;31.70;66.10;;;;;;5051918;28;20074;-61
2021/07/13 07:20:11;;;;;;;16.45;4.35;;;31.70;66.40;;;;;;5053932;28;20121;-57
2021/07/13 07:22:38;;;;;;;15.85;4.10;;;31.60;66.80;;;;;;5053463;28;20077;-59
2021/07/13 07:25:05;;;;;;;13.85;3.90;;;31.60;67.00;;;;;;5052505;28;20074;-60
2021/07/13 07:27:31;;;;;;;11.57;3.90;;;31.60;67.50;;;;;;5052583;28;20070;-60
2021/07/13 07:29:58;;;;;;;14.82;3.72;;;31.50;68.40;;;;;;5053430;28;20215;-57
2021/07/13 07:32:25;;;;;;;14.65;4.07;;;31.50;68.10;;;;;;5053795;28;20156;-58
2021/07/13 07:34:51;;;;;;;20.33;5.10;;;31.50;68.20;;;;;;5053185;28;20184;-62
2021/07/13 07:37:18;;;;;;;13.85;4.00;;;31.50;68.50;;;;;;5051853;28;20074;-60
2021/07/13 07:39:45;;;;;;;14.82;4.13;;;31.40;68.90;;;;;;5053378;28;20090;-59
2021/07/13 07:42:11;;;;;;;13.10;4.00;;;31.40;69.30;;;;;;5052675;28;20081;-59
2021/07/13 07:44:38;;;;;;;14.70;4.50;;;31.30;69.70;;;;;;5053169;28;20096;-62
2021/07/13 07:47:05;;;;;;;14.57;4.03;;;31.40;70.10;;;;;;5058902;28;20070;-60
2021/07/13 07:49:31;;;;;;;13.65;3.80;;;31.30;70.50;;;;;;5069201;28;20085;-60
2021/07/13 07:51:58;;;;;;;14.70;4.07;;;31.30;71.10;;;;;;5053471;28;20070;-60
2021/07/13 07:54:27;;;;;;;18.98;3.90;;;31.30;71.60;;;;;;5054130;28;20074;-61
2021/07/13 07:56:54;;;;;;;14.98;3.85;;;31.20;72.00;;;;;;5053482;28;20070;-59
2021/07/13 07:59:21;;;;;;;31.30;4.00;;;31.20;72.70;;;;;;5052859;28;20109;-58
2021/07/13 08:01:50;;;;;;;12.77;3.63;;;31.10;73.40;;;;;;5052973;28;20527;-59
2021/07/13 08:04:17;;;;;;;11.52;3.70;;;31.20;73.40;;;;;;5051722;28;20160;-59
2021/07/13 08:06:44;;;;;;;14.32;3.63;;;31.10;73.80;;;;;;5052379;28;20097;-60
2021/07/13 08:09:10;;;;;;;14.52;3.92;;;31.10;74.00;;;;;;5051161;28;20108;-60
2021/07/13 08:11:38;;;;;;;11.50;3.92;;;31.00;74.50;;;;;;5051715;28;20164;-58
2021/07/13 08:14:06;;;;;;;15.10;4.15;;;31.00;74.90;;;;;;5051557;28;20066;-61
2021/07/13 08:16:35;;;;;;;11.35;3.97;;;31.10;75.30;;;;;;5051961;28;20069;-60
2021/07/13 08:19:02;;;;;;;12.82;4.03;;;31.10;75.70;;;;;;5051327;28;20081;-59
2021/07/13 08:21:28;;;;;;;11.95;3.70;;;31.00;76.20;;;;;;5052735;28;20154;-59
2021/07/13 08:23:55;;;;;;;14.43;3.90;;;31.00;76.90;;;;;;5052398;28;20566;-60
2021/07/13 08:26:23;;;;;;;12.95;4.68;;;31.00;77.70;;;;;;5051987;28;20491;-63
2021/07/13 08:28:50;;;;;;;19.73;4.55;;;30.90;79.40;;;;;;5040140;28;20069;-62
2021/07/13 08:31:16;;;;;;;17.05;4.05;;;31.00;95.90;;;;;;5053754;28;20080;-61
2021/07/13 08:33:43;;;;;;;15.82;4.28;;;30.80;80.60;;;;;;5053497;28;20152;-61
2021/07/13 08:36:10;;;;;;;13.43;4.63;;;30.80;81.80;;;;;;5052940;28;20168;-60
2021/07/13 08:38:37;;;;;;;19.10;4.80;;;30.80;82.40;;;;;;5053262;28;20077;-60
2021/07/13 08:41:04;;;;;;;21.25;4.95;;;30.80;82.70;;;;;;5068715;28;20104;-57
2021/07/13 08:43:32;;;;;;;21.30;5.28;;;30.70;83.30;;;;;;5052959;28;20086;-60
2021/07/13 08:45:59;;;;;;;16.90;5.03;;;30.70;83.60;;;;;;5051557;28;20078;-59
2021/07/13 08:48:26;;;;;;;13.40;4.50;;;30.70;83.60;;;;;;5051684;28;20070;-60
2021/07/13 08:50:57;;;;;;;16.15;4.72;;;30.70;84.00;;;;;;5051533;28;20073;-60
2021/07/13 08:53:24;;;;;;;18.20;4.70;;;30.70;84.10;;;;;;5051429;28;20142;-59
2021/07/13 08:55:54;;;;;;;15.13;4.60;;;30.70;84.50;;;;;;5051227;28;20617;-57
2021/07/13 08:58:23;;;;;;;12.75;4.40;;;30.70;84.60;;;;;;5052302;28;20151;-62
2021/07/13 09:00:50;;;;;;;19.88;4.57;;;30.70;84.90;;;;;;5050811;28;20097;-59
2021/07/13 09:03:19;;;;;;;19.42;4.80;;;30.70;85.00;;;;;;5052141;28;20126;-60
2021/07/13 09:05:51;;;;;;;19.10;5.05;;;30.70;85.40;;;;;;5051278;28;20162;-60
2021/07/13 09:08:21;;;;;;;15.80;4.55;;;30.70;85.60;;;;;;5051425;28;20093;-63
2021/07/13 09:11:16;;;;;;;19.45;4.65;;;30.60;86.80;;;;;;5049470;28;20498;-59
2021/07/13 09:13:48;;;;;;;22.02;4.65;;;30.60;86.40;;;;;;5046888;28;20077;-58
2021/07/13 09:16:17;;;;;;;16.25;4.40;;;30.60;86.70;;;;;;5050608;28;20105;-58
2021/07/13 09:18:55;;;;;;;20.15;5.28;;;30.50;87.10;;;;;;5048994;28;20093;-59
2021/07/13 09:21:25;;;;;;;14.35;4.47;;;30.60;87.20;;;;;;5048888;28;20136;-58
2021/07/13 09:24:10;;;;;;;16.92;4.70;;;30.60;87.10;;;;;;5051912;28;20078;-60
2021/07/13 09:26:52;;;;;;;15.63;4.32;;;30.40;87.20;;;;;;5050551;28;20076;-58
2021/07/13 09:29:44;;;;;;;16.75;5.15;;;30.50;87.00;;;;;;5049512;28;20135;-59
2021/07/13 09:32:35;;;;;;;19.10;5.38;;;30.50;86.70;;;;;;5049651;28;20077;-60
2021/07/13 09:35:13;;;;;;;19.33;5.60;;;30.50;86.60;;;;;;5049993;28;20153;-59
2021/07/13 09:37:49;;;;;;;18.70;5.30;;;30.40;86.60;;;;;;5050710;28;20077;-59
2021/07/13 09:40:17;;;;;;;17.33;5.87;;;30.40;86.60;;;;;;5050853;28;20105;-62
2021/07/13 09:42:48;;;;;;;26.10;6.32;;;30.40;87.20;;;;;;5050791;28;20318;-59
2021/07/13 09:45:21;;;;;;;23.88;6.05;;;30.40;87.00;;;;;;5050809;28;20089;-58
2021/07/13 09:47:49;;;;;;;18.02;4.82;;;30.40;87.00;;;;;;5050253;28;20109;-59
2021/07/13 09:50:31;;;;;;;21.50;5.70;;;30.50;87.30;;;;;;5050265;28;20082;-58
2021/07/13 09:53:02;;;;;;;15.18;5.28;;;30.40;87.60;;;;;;5050437;28;20077;-57
2021/07/13 09:55:29;;;;;;;18.80;5.30;;;30.40;87.50;;;;;;5051013;28;20081;-58
2021/07/13 09:58:18;;;;;;;15.10;4.65;;;30.50;87.80;;;;;;5050837;28;20105;-57
2021/07/13 10:00:49;;;;;;;15.20;4.85;;;30.40;88.20;;;;;;5050471;28;20101;-58
2021/07/13 10:03:18;;;;;;;17.85;4.82;;;30.40;88.20;;;;;;5049288;28;20097;-59
2021/07/13 10:05:47;;;;;;;17.13;5.13;;;30.40;88.40;;;;;;5051060;28;20546;-59
2021/07/13 10:08:15;;;;;;;18.63;5.53;;;30.40;88.20;;;;;;5050084;28;20507;-59
2021/07/13 10:10:45;;;;;;;15.90;5.25;;;30.40;88.30;;;;;;5049354;28;20076;-59
2021/07/13 10:13:13;;;;;;;14.52;4.75;;;30.40;88.50;;;;;;5050162;28;20081;-59
2021/07/13 10:15:41;;;;;;;21.13;5.43;;;30.40;88.80;;;;;;5050278;28;20532;-59
2021/07/13 10:18:08;;;;;;;23.73;5.93;;;30.40;88.70;;;;;;5050188;28;20078;-58
2021/07/13 10:20:37;;;;;;;18.75;5.22;;;30.40;88.90;;;;;;5049621;28;20109;-59
2021/07/13 10:23:06;;;;;;;20.80;5.20;;;30.40;89.30;;;;;;5050367;28;20168;-61
2021/07/13 10:25:44;;;;;;;21.83;5.63;;;30.30;89.40;;;;;;5050393;28;20147;-56
2021/07/13 10:28:12;;;;;;;20.15;5.35;;;30.30;89.40;;;;;;5050532;28;20485;-57
2021/07/13 10:30:41;;;;;;;25.27;5.60;;;30.30;89.70;;;;;;5049697;28;20135;-55
2021/07/13 10:33:35;;;;;;;20.42;5.72;;;30.30;90.00;;;;;;5048988;28;20081;-57
2021/07/13 10:36:33;;;;;;;19.00;5.63;;;30.30;90.00;;;;;;5050541;28;20069;-59
2021/07/13 10:39:28;;;;;;;17.05;4.90;;;30.30;90.00;;;;;;5049876;28;20081;-56
2021/07/13 10:41:57;;;;;;;18.60;5.05;;;30.30;90.10;;;;;;5049413;28;20097;-58
2021/07/13 10:44:58;;;;;;;24.17;5.63;;;30.20;90.00;;;;;;5049187;28;20110;-58
2021/07/13 10:47:30;;;;;;;26.52;6.68;;;30.30;90.10;;;;;;5038144;28;20170;-59
2021/07/13 10:50:18;;;;;;;18.85;6.35;;;30.20;90.00;;;;;;5050463;28;20156;-57
2021/07/13 10:52:52;;;;;;;21.85;7.13;;;30.10;90.20;;;;;;5052345;28;20076;-57
2021/07/13 10:55:31;;;;;;;21.55;7.28;;;30.10;90.30;;;;;;5052219;28;20531;-58
2021/07/13 10:58:15;;;;;;;19.10;7.10;;;30.10;90.50;;;;;;5052853;28;20120;-58
2021/07/13 11:00:51;;;;;;;20.58;7.03;;;30.10;90.30;;;;;;5052489;28;20104;-57
2021/07/13 11:03:32;;;;;;;22.27;6.63;;;30.00;90.50;;;;;;5052922;28;20557;-59
2021/07/13 11:06:06;;;;;;;24.50;6.68;;;30.00;90.60;;;;;;5053497;28;20077;-56
2021/07/13 11:08:46;;;;;;;20.98;6.63;;;30.10;90.70;;;;;;5053451;28;20203;-58
2021/07/13 11:11:15;;;;;;;23.33;6.53;;;30.00;90.70;;;;;;5053672;28;20081;-58
2021/07/13 11:13:43;;;;;;;23.42;6.70;;;30.00;90.90;;;;;;5053679;28;20119;-59
2021/07/13 11:16:10;;;;;;;17.65;5.90;;;30.00;90.90;;;;;;5052720;28;20084;-57
2021/07/13 11:18:38;;;;;;;21.63;5.90;;;29.90;90.80;;;;;;5053006;28;20127;-60
2021/07/13 11:21:28;;;;;;;26.80;6.05;;;30.00;91.00;;;;;;5052574;28;20100;-57
2021/07/13 11:23:55;;;;;;;19.50;6.50;;;30.00;91.00;;;;;;5052697;28;20534;-57
2021/07/13 11:26:24;;;;;;;20.77;5.95;;;30.00;91.20;;;;;;5052718;28;20080;-60
2021/07/13 11:28:55;;;;;;;24.98;6.32;;;29.90;91.60;;;;;;5053103;28;20077;-57
2021/07/13 11:31:30;;;;;;;22.98;6.50;;;29.90;91.90;;;;;;5051745;28;20073;-56
2021/07/13 11:34:01;;;;;;;27.10;6.30;;;29.90;92.10;;;;;;5053134;28;20132;-57
2021/07/13 11:36:34;;;;;;;29.10;6.82;;;29.90;92.00;;;;;;5053249;28;20466;-57
2021/07/13 11:39:05;;;;;;;24.83;6.70;;;30.00;91.90;;;;;;5052528;28;20078;-58
2021/07/13 11:41:32;;;;;;;24.17;6.80;;;29.90;92.00;;;;;;5051785;28;20128;-57
2021/07/13 11:44:03;;;;;;;24.85;7.00;;;30.00;92.00;;;;;;5052415;28;20158;-58
2021/07/13 11:46:32;;;;;;;21.92;6.97;;;29.90;91.90;;;;;;5053408;28;20082;-57
2021/07/13 11:49:03;;;;;;;23.77;6.75;;;30.00;92.00;;;;;;5053011;28;20160;-57
2021/07/13 11:51:34;;;;;;;18.75;6.22;;;30.00;91.90;;;;;;5051610;28;20077;-58
2021/07/13 11:54:03;;;;;;;27.55;7.38;;;30.00;91.80;;;;;;5051762;28;20084;-59
2021/07/13 11:56:31;;;;;;;19.45;5.88;;;30.00;91.60;;;;;;5051943;28;20120;-59
2021/07/13 11:58:59;;;;;;;20.63;5.60;;;30.00;91.70;;;;;;5053189;28;20122;-59
2021/07/13 12:01:28;;;;;;;21.50;5.38;;;30.00;91.70;;;;;;5052409;28;20188;-57
2021/07/13 12:04:02;;;;;;;22.38;5.60;;;29.70;99.90;;;;;;5052561;28;20622;-58
2021/07/13 12:06:28;;;;;;;24.13;5.68;;;30.10;99.90;;;;;;5051487;28;20389;-56
2021/07/13 12:09:01;;;;;;;18.95;5.57;;;29.90;92.40;;;;;;5051288;28;20546;-60
2021/07/13 12:11:32;;;;;;;22.83;5.30;;;29.90;92.10;;;;;;5051044;28;20455;-56
2021/07/13 12:14:01;;;;;;;21.92;5.95;;;30.00;92.00;;;;;;5052100;28;20066;-57
2021/07/13 12:16:33;;;;;;;20.50;6.22;;;30.00;91.80;;;;;;5052845;28;20358;-59
2021/07/13 12:19:11;;;;;;;25.38;6.18;;;30.00;91.70;;;;;;5052413;28;20153;-58
2021/07/13 12:21:41;;;;;;;21.85;5.72;;;30.10;91.80;;;;;;5052510;28;20200;-59
2021/07/13 12:24:13;;;;;;;22.65;5.38;;;30.10;91.80;;;;;;5050580;28;20081;-56
2021/07/13 12:39:22;;;;;;;22.33;5.57;;;30.00;91.60;;;;;;5149276;27;20457;-66
2021/07/13 12:42:12;;;;;;;19.83;5.45;;;30.10;91.30;;;;;;5120293;27;20100;-66
2021/07/13 12:44:48;;;;;;;15.93;4.78;;;30.00;91.80;;;;;;5129068;27;20073;-66
2021/07/13 12:47:21;;;;;;;15.20;4.90;;;30.00;91.80;;;;;;5129136;27;20084;-66
2021/07/13 12:50:10;;;;;;;18.30;5.65;;;29.90;91.80;;;;;;5131352;27;20076;-66
2021/07/13 12:53:11;;;;;;;22.45;5.47;;;29.90;92.10;;;;;;5129425;27;20113;-67
2021/07/13 12:55:39;;;;;;;20.52;5.03;;;29.90;92.20;;;;;;5119422;27;20133;-66
2021/07/13 12:58:12;;;;;;;24.08;6.18;;;29.90;92.20;;;;;;5128935;27;20107;-67
2021/07/13 13:00:42;;;;;;;31.10;6.75;;;30.00;92.30;;;;;;5123198;27;20078;-66
2021/07/13 13:03:12;;;;;;;24.08;5.47;;;30.00;92.30;;;;;;5130517;27;20477;-66
2021/07/13 13:05:46;;;;;;;20.35;5.35;;;30.00;92.30;;;;;;5127212;27;20585;-67